Time;durP1;ratioP1;P1;durP2;ratioP2;P2;SDS_P1;SDS_P2;PMS_P1;PMS_P2;Temp;Humidity;BMP_temperature;BMP_pressure;BME280_temperature;BME280_humidity;BME280_pressure;Samples;Min_cycle;Max_cycle;Signal;HPM_P1;HPM_P2
2022/08/14 03:00:38;;;;;;;0.70;0.57;;;21.00;60.00;;;;;;6035250;22;20368;-73
2022/08/14 03:03:05;;;;;;;0.70;0.60;;;20.90;59.90;;;;;;5033031;28;20490;-73
2022/08/14 03:05:31;;;;;;;0.70;0.60;;;20.90;59.90;;;;;;5032754;28;20855;-73
2022/08/14 03:08:05;;;;;;;0.70;0.60;;;20.80;60.30;;;;;;5033018;28;20447;-73
2022/08/14 03:10:33;;;;;;;0.70;0.60;;;20.80;60.10;;;;;;5032972;28;20474;-73
2022/08/14 03:13:03;;;;;;;0.70;0.60;;;20.80;60.10;;;;;;5032960;28;20539;-73
2022/08/14 03:15:30;;;;;;;0.70;0.60;;;20.80;60.30;;;;;;5056838;23;20483;-73
2022/08/14 03:17:58;;;;;;;0.70;0.60;;;20.80;60.20;;;;;;5032206;28;20501;-75
2022/08/14 03:20:27;;;;;;;0.70;0.63;;;20.70;60.30;;;;;;5032097;28;20942;-76
2022/08/14 03:22:54;;;;;;;0.70;0.60;;;20.70;60.50;;;;;;5032363;28;20489;-76
2022/08/14 03:25:21;;;;;;;0.70;0.60;;;20.70;60.20;;;;;;5031987;28;21053;-73
2022/08/14 03:27:48;;;;;;;0.70;0.60;;;20.70;60.40;;;;;;5032399;28;20494;-75
2022/08/14 03:30:15;;;;;;;0.97;0.67;;;20.60;60.70;;;;;;5033587;28;20458;-73
2022/08/14 03:32:42;;;;;;;0.80;0.70;;;20.60;60.50;;;;;;5035713;28;21061;-76
2022/08/14 03:35:10;;;;;;;0.70;0.70;;;20.60;60.50;;;;;;5035534;28;20828;-74
2022/08/14 03:37:37;;;;;;;0.90;0.60;;;20.50;60.80;;;;;;5035992;28;20554;-73
2022/08/14 03:40:06;;;;;;;0.70;0.60;;;20.50;61.00;;;;;;5035846;28;20542;-76
2022/08/14 03:42:34;;;;;;;0.70;0.60;;;20.50;61.00;;;;;;5035768;28;20570;-76
2022/08/14 03:45:00;;;;;;;0.70;0.70;;;20.40;61.10;;;;;;5035780;28;20472;-77
2022/08/14 03:47:27;;;;;;;0.70;0.60;;;20.40;61.20;;;;;;5035737;28;20447;-75
2022/08/14 03:49:54;;;;;;;0.97;0.63;;;20.40;61.30;;;;;;5035686;28;20509;-76
2022/08/14 03:52:23;;;;;;;0.70;0.60;;;20.30;61.40;;;;;;5035623;28;20448;-76
2022/08/14 03:54:50;;;;;;;0.87;0.80;;;20.30;61.50;;;;;;5035561;28;20472;-76
2022/08/14 03:57:16;;;;;;;0.80;0.63;;;20.30;61.60;;;;;;5035570;28;20451;-75
2022/08/14 03:59:43;;;;;;;0.70;0.70;;;20.20;61.60;;;;;;5035463;28;20447;-76
2022/08/14 04:02:10;;;;;;;0.70;0.60;;;20.20;61.70;;;;;;5035400;28;20550;-76
2022/08/14 04:04:36;;;;;;;0.77;0.70;;;20.20;62.00;;;;;;5035379;28;20505;-76
2022/08/14 04:07:04;;;;;;;0.70;0.60;;;20.20;61.80;;;;;;5035394;28;20447;-75
2022/08/14 04:09:32;;;;;;;0.70;0.60;;;20.20;61.80;;;;;;5035230;28;20529;-75
2022/08/14 04:11:59;;;;;;;0.70;0.70;;;20.10;61.80;;;;;;5034985;28;20455;-76
2022/08/14 04:14:27;;;;;;;0.70;0.70;;;20.10;62.10;;;;;;5035126;28;20600;-74
2022/08/14 04:16:54;;;;;;;0.70;0.70;;;20.10;62.20;;;;;;5035253;28;20447;-74
2022/08/14 04:19:22;;;;;;;0.87;0.70;;;20.10;62.40;;;;;;5035087;28;20443;-74
2022/08/14 04:21:50;;;;;;;0.70;0.63;;;20.10;62.40;;;;;;5034777;28;20895;-74
2022/08/14 04:24:17;;;;;;;0.70;0.60;;;20.10;62.10;;;;;;5034705;28;20538;-74
2022/08/14 04:26:46;;;;;;;1.00;0.70;;;20.10;62.10;;;;;;5034887;28;20475;-74
2022/08/14 04:29:13;;;;;;;0.70;0.70;;;20.10;62.20;;;;;;5034890;28;20462;-74
2022/08/14 04:31:40;;;;;;;0.80;0.80;;;20.20;62.20;;;;;;5034897;28;20634;-74
2022/08/14 04:34:07;;;;;;;0.70;0.60;;;20.10;62.50;;;;;;5034800;28;20450;-74
2022/08/14 04:43:34;;;;;;;0.70;0.70;;;20.20;62.40;;;;;;5034711;28;20467;-74
2022/08/14 04:44:51;;;;;;;0.80;0.70;;;20.20;62.70;;;;;;5034543;28;20529;-74
2022/08/14 04:50:05;;;;;;;0.90;0.70;;;20.30;62.70;;;;;;5000869;28;20431;-74
2022/08/14 04:52:31;;;;;;;0.70;0.60;;;20.40;63.00;;;;;;5034480;28;20450;-74
2022/08/14 04:54:58;;;;;;;0.80;0.70;;;20.40;62.80;;;;;;5034303;28;20467;-74
2022/08/14 04:57:26;;;;;;;0.70;0.67;;;20.50;62.70;;;;;;5034305;28;20515;-73
2022/08/14 04:59:53;;;;;;;1.27;0.60;;;20.60;62.50;;;;;;5034264;28;20443;-74
2022/08/14 05:02:26;;;;;;;0.70;0.70;;;20.80;62.10;;;;;;5034136;28;20511;-74
2022/08/14 05:04:52;;;;;;;0.70;0.70;;;20.90;62.20;;;;;;5034182;28;20482;-74
2022/08/14 05:07:19;;;;;;;0.70;0.70;;;21.00;61.80;;;;;;5034146;28;20451;-73
2022/08/14 05:09:46;;;;;;;0.70;0.70;;;21.10;62.10;;;;;;5034214;28;20479;-74
2022/08/14 05:12:13;;;;;;;0.70;0.60;;;21.20;61.50;;;;;;5034175;28;20447;-74
2022/08/14 05:14:41;;;;;;;0.70;0.60;;;21.40;61.60;;;;;;5033639;28;20974;-74
2022/08/14 05:17:07;;;;;;;0.70;0.60;;;21.50;60.80;;;;;;5033751;28;20432;-72
2022/08/14 05:19:34;;;;;;;0.70;0.70;;;21.60;61.00;;;;;;5034418;28;20447;-74
2022/08/14 05:22:01;;;;;;;0.70;0.60;;;21.70;61.00;;;;;;5033934;28;20520;-74
2022/08/14 05:24:28;;;;;;;0.70;0.60;;;21.90;60.80;;;;;;5033981;28;20493;-74
2022/08/14 05:26:55;;;;;;;0.70;0.67;;;21.90;60.20;;;;;;5033832;28;20454;-74
2022/08/14 05:29:22;;;;;;;0.80;0.80;;;22.00;60.70;;;;;;5034587;28;20475;-74
2022/08/14 05:31:50;;;;;;;0.70;0.70;;;22.00;60.00;;;;;;5033506;28;21016;-74
2022/08/14 05:34:18;;;;;;;1.40;0.70;;;22.10;60.00;;;;;;5033370;28;20862;-75
2022/08/14 05:36:44;;;;;;;0.70;0.70;;;22.10;60.30;;;;;;5033858;28;20563;-74
2022/08/14 05:39:11;;;;;;;0.80;0.70;;;22.10;60.20;;;;;;5033612;28;20452;-74
2022/08/14 05:41:38;;;;;;;0.70;0.70;;;22.10;60.30;;;;;;5033579;28;20440;-74
2022/08/14 05:44:04;;;;;;;0.70;0.67;;;22.10;60.50;;;;;;5035480;28;20490;-74
2022/08/14 05:46:31;;;;;;;0.80;0.70;;;22.10;60.50;;;;;;5035858;28;20891;-74
2022/08/14 05:48:59;;;;;;;0.80;0.60;;;22.20;60.70;;;;;;5035472;28;20443;-74
2022/08/14 05:51:28;;;;;;;0.70;0.60;;;22.20;60.10;;;;;;5034074;28;20962;-74
2022/08/14 05:53:55;;;;;;;0.70;0.60;;;22.30;59.80;;;;;;5033413;28;20522;-73
2022/08/14 05:56:24;;;;;;;0.70;0.60;;;22.40;59.70;;;;;;5033315;28;20498;-74
2022/08/14 05:58:51;;;;;;;0.90;0.60;;;22.60;59.30;;;;;;5033372;28;20539;-74
2022/08/14 06:01:17;;;;;;;0.70;0.60;;;22.50;58.50;;;;;;5033252;28;20452;-76
2022/08/14 06:03:44;;;;;;;0.90;0.70;;;22.50;59.30;;;;;;5033181;28;20510;-76
2022/08/14 06:06:12;;;;;;;0.77;0.70;;;22.70;58.80;;;;;;5033125;28;20522;-74
2022/08/14 06:08:39;;;;;;;0.70;0.60;;;22.70;58.90;;;;;;5033139;28;20456;-74
2022/08/14 06:11:07;;;;;;;0.70;0.60;;;22.90;58.50;;;;;;5033105;28;20448;-75
2022/08/14 06:13:36;;;;;;;0.70;0.60;;;23.00;58.20;;;;;;5032867;28;20986;-74
2022/08/14 06:16:03;;;;;;;0.70;0.60;;;23.00;58.10;;;;;;5032651;28;21025;-74
2022/08/14 06:18:30;;;;;;;0.80;0.70;;;22.90;58.50;;;;;;5033004;28;20452;-72
2022/08/14 06:20:57;;;;;;;0.87;0.70;;;23.20;57.90;;;;;;5033153;28;20444;-73
2022/08/14 06:23:25;;;;;;;0.70;0.60;;;23.50;57.30;;;;;;5033018;28;20483;-73
2022/08/14 06:25:52;;;;;;;0.70;0.60;;;23.80;55.70;;;;;;5032611;28;20883;-73
2022/08/14 06:28:19;;;;;;;0.70;0.60;;;23.70;54.90;;;;;;5032817;28;20861;-73
2022/08/14 06:30:46;;;;;;;0.70;0.60;;;23.80;55.30;;;;;;5033143;28;20455;-73
2022/08/14 06:33:14;;;;;;;0.70;0.60;;;24.20;55.40;;;;;;5032791;28;20452;-73
2022/08/14 06:35:40;;;;;;;0.83;0.70;;;24.40;54.10;;;;;;5032776;28;20548;-73
2022/08/14 06:38:07;;;;;;;0.70;0.50;;;24.50;54.10;;;;;;5032801;28;20451;-72
2022/08/14 06:40:37;;;;;;;0.70;0.60;;;24.70;53.60;;;;;;5032677;28;20455;-73
2022/08/14 06:43:05;;;;;;;0.70;0.60;;;25.10;53.00;;;;;;5033173;28;20483;-73
2022/08/14 06:45:33;;;;;;;1.00;0.70;;;25.40;52.40;;;;;;5032467;28;20977;-73
2022/08/14 06:48:00;;;;;;;0.70;0.60;;;25.70;50.50;;;;;;5032602;28;20443;-72
2022/08/14 06:50:30;;;;;;;0.80;0.60;;;25.70;49.10;;;;;;5032789;28;20543;-73
2022/08/14 06:52:58;;;;;;;0.70;0.57;;;25.60;50.10;;;;;;5032096;28;20450;-73
2022/08/14 06:55:24;;;;;;;0.70;0.50;;;25.50;50.30;;;;;;5032289;28;20479;-73
2022/08/14 06:57:52;;;;;;;0.70;0.50;;;25.20;50.40;;;;;;5032796;28;20825;-73
2022/08/14 07:00:21;;;;;;;0.70;0.50;;;25.40;50.90;;;;;;5032295;28;20460;-72
2022/08/14 07:05:46;;;;;;;0.70;0.63;;;25.10;51.30;;;;;;5034230;28;20501;-72
2022/08/14 07:08:15;;;;;;;0.70;0.60;;;25.40;51.00;;;;;;5036021;28;20817;-72
2022/08/14 07:10:42;;;;;;;0.70;0.60;;;25.70;50.70;;;;;;5036265;28;20447;-73
2022/08/14 07:13:12;;;;;;;0.70;0.60;;;25.90;50.80;;;;;;5036299;28;20455;-71
2022/08/14 07:15:38;;;;;;;0.70;0.60;;;26.00;50.20;;;;;;5036119;28;20478;-73
2022/08/14 07:18:06;;;;;;;0.70;0.50;;;26.00;49.90;;;;;;5036335;28;20451;-72
2022/08/14 07:20:33;;;;;;;0.70;0.60;;;26.00;49.90;;;;;;5036195;28;20558;-72
2022/08/14 07:23:01;;;;;;;0.80;0.60;;;26.10;49.20;;;;;;5036022;28;20487;-72
2022/08/14 07:25:28;;;;;;;0.73;0.60;;;26.10;47.50;;;;;;5036105;28;20463;-72
2022/08/14 07:27:55;;;;;;;0.70;0.60;;;25.70;48.20;;;;;;5036064;28;20824;-72
2022/08/14 07:30:24;;;;;;;0.70;0.60;;;25.70;50.40;;;;;;5035957;28;20501;-73
2022/08/14 07:32:51;;;;;;;0.80;0.60;;;26.10;50.90;;;;;;5036016;28;20448;-72
2022/08/14 07:35:18;;;;;;;0.70;0.60;;;26.30;50.50;;;;;;5035467;28;20961;-73
2022/08/14 07:37:47;;;;;;;0.90;0.63;;;26.50;50.20;;;;;;5035919;28;20451;-72
2022/08/14 07:40:14;;;;;;;0.70;0.60;;;26.70;50.10;;;;;;5035669;28;20955;-73
2022/08/14 07:42:41;;;;;;;0.70;0.60;;;27.00;48.70;;;;;;5035586;28;20482;-73
2022/08/14 07:45:08;;;;;;;0.80;0.50;;;27.10;47.70;;;;;;5035581;28;20476;-73
2022/08/14 07:47:41;;;;;;;0.77;0.63;;;26.80;48.80;;;;;;5035824;28;20478;-72
2022/08/14 07:50:13;;;;;;;0.70;0.60;;;26.90;48.60;;;;;;5035908;28;20424;-73
2022/08/14 07:52:41;;;;;;;0.70;0.60;;;26.80;47.50;;;;;;5036206;28;20848;-72
2022/08/14 07:55:09;;;;;;;0.70;0.60;;;26.80;47.70;;;;;;5035553;28;20831;-72
2022/08/14 07:57:38;;;;;;;0.70;0.50;;;26.70;46.90;;;;;;5035273;28;20447;-74
2022/08/14 08:00:09;;;;;;;0.70;0.60;;;26.30;47.70;;;;;;5035281;28;20459;-73
2022/08/14 08:02:40;;;;;;;0.70;0.60;;;26.20;48.20;;;;;;5035346;28;20436;-72
2022/08/14 08:05:08;;;;;;;0.70;0.60;;;26.30;48.30;;;;;;5034989;28;20483;-73
2022/08/14 08:07:36;;;;;;;0.70;0.60;;;26.30;48.00;;;;;;5034723;28;20497;-72
2022/08/14 08:10:29;;;;;;;0.70;0.60;;;26.40;48.30;;;;;;5034712;28;20443;-72
2022/08/14 08:12:54;;;;;;;0.70;0.60;;;26.20;48.10;;;;;;5034507;28;20444;-73
2022/08/14 08:15:21;;;;;;;0.80;0.70;;;26.20;48.50;;;;;;5034338;28;20537;-72
2022/08/14 08:17:50;;;;;;;0.70;0.63;;;26.30;48.40;;;;;;5033615;28;20498;-72
2022/08/14 08:20:18;;;;;;;0.80;0.70;;;26.40;47.90;;;;;;5034843;28;20517;-74
2022/08/14 08:22:45;;;;;;;1.53;0.60;;;26.50;48.40;;;;;;5034721;28;20857;-74
2022/08/14 08:25:12;;;;;;;0.70;0.60;;;26.60;47.90;;;;;;5034664;28;20521;-71
2022/08/14 08:27:39;;;;;;;0.70;0.60;;;26.60;47.70;;;;;;5034507;28;20507;-71
2022/08/14 08:30:08;;;;;;;0.80;0.60;;;26.90;47.70;;;;;;5034051;28;20931;-71
2022/08/14 08:32:38;;;;;;;0.70;0.70;;;27.10;48.00;;;;;;5034391;28;20447;-74
2022/08/14 08:35:11;;;;;;;0.70;0.60;;;27.30;47.00;;;;;;5034482;28;20872;-74
2022/08/14 08:37:38;;;;;;;0.73;0.60;;;27.50;46.90;;;;;;5035118;28;20431;-74
2022/08/14 08:40:06;;;;;;;1.10;0.70;;;27.60;46.60;;;;;;5034837;28;20478;-73
2022/08/14 08:42:33;;;;;;;1.00;0.60;;;27.30;45.70;;;;;;5034535;28;20452;-74
2022/08/14 08:44:59;;;;;;;0.70;0.50;;;27.10;46.00;;;;;;5034255;28;20491;-73
2022/08/14 08:47:36;;;;;;;0.70;0.60;;;26.70;47.60;;;;;;5034120;28;20467;-73
2022/08/14 08:50:03;;;;;;;0.70;0.63;;;26.60;46.90;;;;;;5034138;28;20510;-74
2022/08/14 08:52:31;;;;;;;0.70;0.60;;;26.80;47.50;;;;;;5033892;28;20452;-74
2022/08/14 08:54:58;;;;;;;0.70;0.60;;;26.90;45.80;;;;;;5034118;28;20525;-74
2022/08/14 08:57:25;;;;;;;0.70;0.60;;;27.00;46.50;;;;;;5033973;28;20530;-74
2022/08/14 08:59:52;;;;;;;0.80;0.60;;;27.30;47.10;;;;;;5034125;28;20447;-75
2022/08/14 09:02:19;;;;;;;0.70;0.60;;;27.70;46.50;;;;;;5033866;28;20935;-74
2022/08/14 09:04:46;;;;;;;0.70;0.60;;;27.90;46.30;;;;;;5033821;28;20898;-75
2022/08/14 09:07:13;;;;;;;0.70;0.60;;;28.00;44.80;;;;;;5034739;28;20447;-74
2022/08/14 09:09:50;;;;;;;0.80;0.60;;;28.00;44.90;;;;;;5034726;28;20450;-75
2022/08/14 09:12:20;;;;;;;0.70;0.60;;;28.00;45.10;;;;;;5034658;28;20518;-74
2022/08/14 09:17:12;;;;;;;0.70;0.50;;;27.60;45.60;;;;;;5055590;22;20495;-75
2022/08/14 09:19:40;;;;;;;0.70;0.50;;;27.70;46.80;;;;;;5034437;28;20558;-75
2022/08/14 09:22:06;;;;;;;0.70;0.60;;;27.60;46.20;;;;;;5034409;28;20446;-75
2022/08/14 09:24:33;;;;;;;0.70;0.60;;;27.30;46.20;;;;;;5033950;28;20479;-75
2022/08/14 09:27:01;;;;;;;0.70;0.60;;;27.30;46.60;;;;;;5034172;28;20543;-75
2022/08/14 09:29:28;;;;;;;0.80;0.60;;;27.60;46.20;;;;;;5034012;28;20462;-75
2022/08/14 09:31:58;;;;;;;0.70;0.50;;;27.80;45.10;;;;;;5034241;28;20863;-74
2022/08/14 09:34:43;;;;;;;0.70;0.50;;;27.70;45.30;;;;;;5034154;28;20514;-75
2022/08/14 09:37:27;;;;;;;0.70;0.50;;;27.80;45.10;;;;;;5034083;28;20463;-75
2022/08/14 09:40:04;;;;;;;0.70;0.60;;;28.00;45.60;;;;;;5034157;28;20435;-75
2022/08/14 09:42:52;;;;;;;0.80;0.60;;;27.90;45.10;;;;;;5034074;28;20482;-75
2022/08/14 09:45:22;;;;;;;0.70;0.60;;;28.10;44.40;;;;;;5033877;28;20514;-75
2022/08/14 09:47:52;;;;;;;0.70;0.60;;;28.00;45.20;;;;;;5034727;28;20448;-75
2022/08/14 09:50:22;;;;;;;0.70;0.50;;;28.30;44.10;;;;;;5033885;28;20465;-75
2022/08/14 09:52:51;;;;;;;0.70;0.60;;;28.30;44.10;;;;;;5033861;28;20432;-75
2022/08/14 09:55:19;;;;;;;0.70;0.60;;;28.40;45.10;;;;;;5033752;28;20546;-75
2022/08/14 09:57:47;;;;;;;0.80;0.70;;;28.60;44.60;;;;;;5033523;28;20493;-74
2022/08/14 10:00:17;;;;;;;1.00;0.60;;;28.40;44.40;;;;;;5033796;28;20439;-75
2022/08/14 10:02:56;;;;;;;0.70;0.60;;;28.60;44.60;;;;;;5034003;28;20452;-75
2022/08/14 10:05:32;;;;;;;0.87;0.67;;;28.60;44.30;;;;;;5033199;28;20878;-75
2022/08/14 10:08:00;;;;;;;0.70;0.60;;;28.90;45.20;;;;;;5033363;28;20806;-75
2022/08/14 10:10:29;;;;;;;0.70;0.60;;;29.00;42.90;;;;;;5033315;28;20943;-75
2022/08/14 10:12:58;;;;;;;1.00;0.60;;;28.90;43.50;;;;;;5033555;28;20463;-74
2022/08/14 10:15:27;;;;;;;0.90;0.70;;;29.00;44.00;;;;;;5033287;28;20480;-75
2022/08/14 10:18:08;;;;;;;0.70;0.60;;;29.20;44.30;;;;;;5033533;28;20435;-75
2022/08/14 10:20:40;;;;;;;0.80;0.60;;;29.40;43.50;;;;;;5033507;28;20436;-75
2022/08/14 10:23:12;;;;;;;0.80;0.60;;;29.30;43.20;;;;;;5033501;28;20431;-75
2022/08/14 10:25:44;;;;;;;0.70;0.60;;;29.00;43.60;;;;;;5033231;28;20494;-75
2022/08/14 10:28:14;;;;;;;0.70;0.60;;;29.20;42.90;;;;;;5033412;28;20531;-75
2022/08/14 10:30:42;;;;;;;0.70;0.60;;;29.30;42.80;;;;;;5033444;28;20458;-75
2022/08/14 10:33:09;;;;;;;0.80;0.60;;;29.30;42.00;;;;;;5033340;28;20451;-75
2022/08/14 10:35:43;;;;;;;0.70;0.50;;;29.40;42.40;;;;;;5033220;28;20466;-75
2022/08/14 10:38:10;;;;;;;0.70;0.60;;;29.60;42.10;;;;;;5033007;28;20868;-75
2022/08/14 10:40:38;;;;;;;0.70;0.60;;;29.70;42.70;;;;;;5035455;28;20555;-75
2022/08/14 10:43:18;;;;;;;0.70;0.60;;;30.00;42.80;;;;;;5038185;28;20938;-75
2022/08/14 10:45:57;;;;;;;0.70;0.50;;;30.00;40.90;;;;;;5037262;28;20483;-75
2022/08/14 10:48:25;;;;;;;0.70;0.60;;;29.90;39.30;;;;;;5037356;28;20514;-74
2022/08/14 10:50:52;;;;;;;0.70;0.60;;;29.80;39.10;;;;;;5036980;28;20942;-73
2022/08/14 10:53:35;;;;;;;0.70;0.50;;;29.80;40.60;;;;;;5037244;28;20447;-73
2022/08/14 10:56:07;;;;;;;0.70;0.60;;;29.90;40.40;;;;;;5036838;28;20466;-74
2022/08/14 10:58:35;;;;;;;0.70;0.60;;;30.00;40.50;;;;;;5037179;28;20481;-73
2022/08/14 11:01:04;;;;;;;0.70;0.60;;;30.10;40.20;;;;;;5037047;28;20493;-74
2022/08/14 11:03:38;;;;;;;0.70;0.60;;;30.30;40.10;;;;;;5037029;28;20458;-73
2022/08/14 11:06:18;;;;;;;1.20;0.60;;;30.40;39.90;;;;;;5036910;28;20462;-73
2022/08/14 11:08:45;;;;;;;0.70;0.50;;;30.30;39.80;;;;;;5036978;28;20427;-74
2022/08/14 11:11:12;;;;;;;0.70;0.60;;;30.30;39.70;;;;;;5036875;28;20489;-73
2022/08/14 11:13:44;;;;;;;0.80;0.73;;;30.10;39.70;;;;;;5036848;28;20443;-73
2022/08/14 11:16:12;;;;;;;0.70;0.60;;;30.00;39.90;;;;;;5036484;28;20487;-73
2022/08/14 11:18:43;;;;;;;0.70;0.60;;;29.90;40.00;;;;;;5036781;28;20872;-73
2022/08/14 11:21:12;;;;;;;1.23;0.60;;;30.20;39.80;;;;;;5036710;28;20435;-73
2022/08/14 11:23:39;;;;;;;0.80;0.60;;;30.20;40.50;;;;;;5036657;28;20493;-73
2022/08/14 11:26:07;;;;;;;0.70;0.70;;;30.50;40.80;;;;;;5036465;28;20490;-73
2022/08/14 11:28:42;;;;;;;0.70;0.50;;;30.70;39.80;;;;;;5036577;28;20470;-73
2022/08/14 11:31:12;;;;;;;0.70;0.60;;;30.90;39.40;;;;;;5036580;28;20485;-73
2022/08/14 11:33:40;;;;;;;0.80;0.60;;;30.80;39.20;;;;;;5036521;28;20432;-73
2022/08/14 11:36:09;;;;;;;0.70;0.60;;;30.80;38.80;;;;;;5036371;28;20525;-73
2022/08/14 11:38:36;;;;;;;0.80;0.70;;;30.80;38.50;;;;;;5036413;28;20530;-73
2022/08/14 11:41:04;;;;;;;0.70;0.60;;;31.00;38.90;;;;;;5036252;28;20463;-76
2022/08/14 11:43:31;;;;;;;0.70;0.60;;;31.20;37.80;;;;;;5036143;28;20451;-72
2022/08/14 11:46:00;;;;;;;0.70;0.60;;;31.50;37.40;;;;;;5036298;28;20487;-71
2022/08/14 11:48:28;;;;;;;0.70;0.60;;;31.50;37.30;;;;;;5036288;28;20493;-73
2022/08/14 11:50:55;;;;;;;0.70;0.60;;;31.60;37.20;;;;;;5036205;28;20450;-71
2022/08/14 11:53:24;;;;;;;0.70;0.50;;;31.70;36.60;;;;;;5036037;28;20443;-72
2022/08/14 11:55:57;;;;;;;0.70;0.60;;;31.90;36.90;;;;;;5035965;28;20464;-72
2022/08/14 11:58:28;;;;;;;0.67;0.60;;;31.40;37.20;;;;;;5035785;28;20436;-74
2022/08/14 12:00:57;;;;;;;0.70;0.50;;;31.40;37.60;;;;;;5035985;28;20447;-72
2022/08/14 12:03:34;;;;;;;0.80;0.60;;;31.40;37.40;;;;;;5035907;28;20513;-72
2022/08/14 12:06:05;;;;;;;0.70;0.60;;;31.40;36.10;;;;;;5035720;28;20534;-73
2022/08/14 12:08:34;;;;;;;0.70;0.60;;;31.30;35.60;;;;;;5035479;28;20865;-73
2022/08/14 12:11:02;;;;;;;0.70;0.60;;;31.10;37.10;;;;;;5035816;28;20478;-73
2022/08/14 12:13:31;;;;;;;0.60;0.60;;;31.10;36.20;;;;;;5035751;28;20450;-74
2022/08/14 12:15:59;;;;;;;0.70;0.60;;;31.10;35.60;;;;;;5035411;28;20526;-74
2022/08/14 12:18:33;;;;;;;1.10;0.60;;;31.20;34.90;;;;;;5035756;28;20553;-75
2022/08/14 12:21:11;;;;;;;0.67;0.60;;;31.60;35.40;;;;;;5035695;28;20527;-74
2022/08/14 12:23:38;;;;;;;0.70;0.60;;;31.80;33.80;;;;;;5035609;28;20505;-74
2022/08/14 12:26:06;;;;;;;0.70;0.60;;;31.50;33.30;;;;;;5035371;28;20495;-74
2022/08/14 12:28:33;;;;;;;0.70;0.60;;;31.80;34.30;;;;;;5035464;28;20456;-74
2022/08/14 12:31:00;;;;;;;1.20;0.60;;;32.00;32.90;;;;;;5035161;28;20831;-74
2022/08/14 12:33:31;;;;;;;0.70;0.60;;;32.00;32.60;;;;;;5035361;28;20448;-73
2022/08/14 12:36:01;;;;;;;0.70;0.60;;;32.10;32.00;;;;;;5035300;28;20822;-76
2022/08/14 12:38:33;;;;;;;0.60;0.50;;;32.20;33.20;;;;;;5034971;28;20939;-75
2022/08/14 12:41:01;;;;;;;0.60;0.57;;;32.20;32.40;;;;;;5035176;28;20448;-72
2022/08/14 12:43:28;;;;;;;0.70;0.60;;;32.00;33.00;;;;;;5034829;28;20443;-73
2022/08/14 12:45:55;;;;;;;0.70;0.50;;;32.10;32.60;;;;;;5035002;28;20582;-73
2022/08/14 12:48:25;;;;;;;0.60;0.50;;;32.20;33.30;;;;;;5034763;28;20803;-74
2022/08/14 12:50:52;;;;;;;0.70;0.60;;;32.50;34.20;;;;;;5034787;28;20883;-74
2022/08/14 12:53:20;;;;;;;0.90;0.60;;;32.60;33.70;;;;;;5035033;28;20498;-73
2022/08/14 12:55:59;;;;;;;0.60;0.50;;;32.70;33.60;;;;;;5034902;28;20460;-73
2022/08/14 12:58:28;;;;;;;0.60;0.50;;;32.80;31.60;;;;;;5034898;28;20498;-73
2022/08/14 13:00:56;;;;;;;0.70;0.60;;;32.30;31.30;;;;;;5034885;28;20440;-73
2022/08/14 13:03:25;;;;;;;0.70;0.60;;;31.90;30.90;;;;;;5034054;28;20455;-72
2022/08/14 13:05:51;;;;;;;0.70;0.50;;;32.00;31.10;;;;;;5034599;28;20483;-73
2022/08/14 13:08:21;;;;;;;0.60;0.50;;;32.40;30.70;;;;;;5034701;28;20447;-73
2022/08/14 13:10:49;;;;;;;0.60;0.50;;;32.50;32.00;;;;;;5034688;28;20562;-73
2022/08/14 13:13:17;;;;;;;0.63;0.50;;;32.80;31.80;;;;;;5034308;28;20451;-73
2022/08/14 13:15:45;;;;;;;0.70;0.50;;;32.90;31.50;;;;;;5034244;28;20502;-74
2022/08/14 13:18:13;;;;;;;0.70;0.57;;;33.10;31.60;;;;;;5034159;28;20998;-73
2022/08/14 13:20:41;;;;;;;0.70;0.60;;;33.00;31.30;;;;;;5034507;28;20498;-73
2022/08/14 13:23:09;;;;;;;0.60;0.50;;;32.90;31.50;;;;;;5034117;28;21002;-73
2022/08/14 13:25:39;;;;;;;0.70;0.53;;;32.70;31.20;;;;;;5034247;28;20491;-75
2022/08/14 13:28:07;;;;;;;0.70;0.50;;;32.60;32.20;;;;;;5034323;28;20455;-74
2022/08/14 13:30:35;;;;;;;0.60;0.60;;;32.00;31.90;;;;;;5034271;28;20538;-73
2022/08/14 13:33:05;;;;;;;0.60;0.53;;;32.20;32.70;;;;;;5034899;28;20482;-73
2022/08/14 13:35:32;;;;;;;0.70;0.60;;;32.40;32.30;;;;;;5034142;28;20475;-73
2022/08/14 13:38:00;;;;;;;0.70;0.60;;;32.70;32.30;;;;;;5033863;28;20942;-72
2022/08/14 13:40:28;;;;;;;0.60;0.50;;;32.90;31.50;;;;;;5034107;28;20541;-73
2022/08/14 13:42:56;;;;;;;0.60;0.50;;;32.80;32.70;;;;;;5033755;28;20939;-73
2022/08/14 13:45:23;;;;;;;0.60;0.50;;;33.10;32.60;;;;;;5033855;28;20491;-71
2022/08/14 13:47:51;;;;;;;0.70;0.60;;;33.00;31.30;;;;;;5033980;28;20486;-71
2022/08/14 13:50:20;;;;;;;0.70;0.60;;;33.10;31.50;;;;;;5034009;28;20444;-71
2022/08/14 13:52:52;;;;;;;0.70;0.50;;;33.10;31.80;;;;;;5033895;28;20459;-71
2022/08/14 13:55:21;;;;;;;0.70;0.50;;;32.90;31.90;;;;;;5033783;28;20878;-72
2022/08/14 13:57:48;;;;;;;0.70;0.60;;;33.00;32.10;;;;;;5033845;28;20456;-72
2022/08/14 14:00:18;;;;;;;0.90;0.60;;;33.20;32.60;;;;;;5033739;28;20444;-71
2022/08/14 14:02:46;;;;;;;0.70;0.60;;;33.50;32.10;;;;;;5033401;28;21001;-72
2022/08/14 14:05:17;;;;;;;0.60;0.60;;;33.90;32.10;;;;;;5033514;28;20541;-72
2022/08/14 14:07:46;;;;;;;0.60;0.60;;;34.40;31.80;;;;;;5033747;28;20438;-72
2022/08/14 14:10:15;;;;;;;0.70;0.60;;;34.60;30.00;;;;;;5033588;28;20454;-72
2022/08/14 14:12:42;;;;;;;0.60;0.50;;;34.60;31.00;;;;;;5033612;28;20535;-71
2022/08/14 14:15:12;;;;;;;0.60;0.50;;;34.70;29.50;;;;;;5033059;28;21036;-72
2022/08/14 14:17:41;;;;;;;0.80;0.60;;;34.60;30.60;;;;;;5033602;28;20435;-71
2022/08/14 14:20:11;;;;;;;0.80;0.60;;;34.80;30.50;;;;;;5033206;28;20455;-72
2022/08/14 14:22:41;;;;;;;0.70;0.60;;;35.00;29.70;;;;;;5033143;28;20866;-71
2022/08/14 14:25:09;;;;;;;0.60;0.50;;;35.20;29.90;;;;;;5032984;28;20577;-72
2022/08/14 14:27:37;;;;;;;0.60;0.50;;;35.30;29.70;;;;;;5033377;28;20505;-72
2022/08/14 14:30:06;;;;;;;0.60;0.50;;;35.40;30.20;;;;;;5033792;28;20455;-71
2022/08/14 14:32:32;;;;;;;1.00;0.60;;;35.20;30.40;;;;;;5033386;28;20443;-71
2022/08/14 14:35:02;;;;;;;0.60;0.50;;;35.10;30.80;;;;;;5033333;28;20487;-72
2022/08/14 14:37:29;;;;;;;0.60;0.60;;;34.80;30.40;;;;;;5033312;28;20444;-72
2022/08/14 14:39:57;;;;;;;0.70;0.60;;;34.50;29.40;;;;;;5033337;28;20497;-71
2022/08/14 14:42:26;;;;;;;0.60;0.50;;;34.20;29.40;;;;;;5033293;28;20534;-71
2022/08/14 14:44:57;;;;;;;0.60;0.60;;;34.40;30.00;;;;;;5032742;28;20501;-72
2022/08/14 14:47:25;;;;;;;0.60;0.60;;;34.60;30.00;;;;;;5033232;28;20432;-71
2022/08/14 14:49:53;;;;;;;0.70;0.57;;;34.70;29.70;;;;;;5033130;28;20455;-72
2022/08/14 14:52:22;;;;;;;0.60;0.50;;;34.50;29.80;;;;;;5032826;28;20501;-71
2022/08/14 14:54:49;;;;;;;0.60;0.50;;;34.20;30.20;;;;;;5033036;28;20447;-72
2022/08/14 14:57:17;;;;;;;0.60;0.50;;;34.20;29.80;;;;;;5033057;28;20448;-72
2022/08/14 14:59:44;;;;;;;0.60;0.50;;;34.40;30.20;;;;;;5033081;28;20506;-72
2022/08/14 15:02:25;;;;;;;0.70;0.60;;;34.50;29.20;;;;;;5033056;28;20451;-72
2022/08/14 15:04:52;;;;;;;0.60;0.50;;;34.50;29.30;;;;;;5032525;28;20909;-72
2022/08/14 15:07:20;;;;;;;0.80;0.60;;;34.50;29.40;;;;;;5032959;28;20611;-70
2022/08/14 15:09:47;;;;;;;0.60;0.60;;;34.60;30.10;;;;;;5032852;28;20538;-71
2022/08/14 15:12:14;;;;;;;0.60;0.50;;;34.50;29.40;;;;;;5032944;28;20439;-72
2022/08/14 15:14:40;;;;;;;0.70;0.60;;;34.40;29.70;;;;;;5032940;28;20450;-72
2022/08/14 15:17:07;;;;;;;0.60;0.60;;;34.20;28.90;;;;;;5135642;22;20629;-71
2022/08/14 15:19:34;;;;;;;0.60;0.50;;;34.20;28.40;;;;;;5032611;28;20939;-72
2022/08/14 15:22:02;;;;;;;0.70;0.60;;;34.10;29.40;;;;;;5032904;28;20447;-72
2022/08/14 15:24:30;;;;;;;0.70;0.60;;;33.80;29.60;;;;;;5032830;28;20459;-72
2022/08/14 15:26:57;;;;;;;0.60;0.60;;;33.60;30.00;;;;;;5035278;28;20484;-72
2022/08/14 15:29:23;;;;;;;0.60;0.50;;;33.50;30.60;;;;;;5036577;28;20443;-72
2022/08/14 15:31:50;;;;;;;0.60;0.60;;;33.60;30.80;;;;;;5036548;28;20451;-71
2022/08/14 15:34:17;;;;;;;0.70;0.50;;;33.80;30.30;;;;;;5036422;28;20443;-71
2022/08/14 15:36:45;;;;;;;0.60;0.50;;;34.00;30.50;;;;;;5036358;28;20532;-71
2022/08/14 15:39:12;;;;;;;0.70;0.60;;;34.10;30.50;;;;;;5036125;28;20458;-71
2022/08/14 15:41:40;;;;;;;0.67;0.50;;;34.20;29.80;;;;;;5036331;28;20447;-71
2022/08/14 15:44:11;;;;;;;0.70;0.60;;;33.90;29.40;;;;;;5036245;28;20440;-71
2022/08/14 15:46:38;;;;;;;0.70;0.60;;;33.70;29.40;;;;;;5036153;28;20490;-70
2022/08/14 15:49:06;;;;;;;0.60;0.60;;;33.70;30.10;;;;;;5035906;28;20943;-70
2022/08/14 15:51:33;;;;;;;0.63;0.60;;;33.60;30.50;;;;;;5036141;28;20494;-71
2022/08/14 15:54:01;;;;;;;0.60;0.50;;;33.40;30.50;;;;;;5035802;28;20938;-71
2022/08/14 15:56:28;;;;;;;0.60;0.60;;;33.40;30.80;;;;;;5035961;28;20831;-71
2022/08/14 15:58:56;;;;;;;0.60;0.50;;;33.30;30.40;;;;;;5036049;28;20570;-70
2022/08/14 16:01:23;;;;;;;0.63;0.50;;;33.20;30.30;;;;;;5035964;28;20447;-71
2022/08/14 16:03:53;;;;;;;0.70;0.60;;;33.20;30.10;;;;;;5035942;28;20451;-71
2022/08/14 16:06:24;;;;;;;0.67;0.57;;;33.10;30.50;;;;;;5035534;28;20998;-71
2022/08/14 16:08:53;;;;;;;0.60;0.50;;;33.20;30.40;;;;;;5035961;28;20442;-71